createdAt,value
2023-02-03T00:00:50.521Z,81.37
2023-02-03T00:03:17.053Z,81.58
2023-02-03T00:05:44.222Z,81.22
2023-02-03T00:08:11.212Z,81.02
2023-02-03T00:10:39.628Z,81.16
2023-02-03T00:13:06.966Z,81.21
2023-02-03T00:15:33.385Z,80.87
2023-02-03T00:17:59.837Z,80.98
2023-02-03T00:20:26.624Z,81.01
2023-02-03T00:22:53.203Z,80.78
2023-02-03T00:25:21.389Z,80.27
2023-02-03T00:27:47.849Z,80.39
2023-02-03T00:30:14.640Z,80.19
2023-02-03T00:32:41.211Z,80.41
2023-02-03T00:35:07.869Z,80.26
2023-02-03T00:37:36.401Z,79.95
2023-02-03T00:40:03.082Z,79.89
2023-02-03T00:42:30.896Z,79.79
2023-02-03T00:44:57.306Z,80.43
2023-02-03T00:47:23.701Z,79.69
2023-02-03T00:49:50.474Z,80.22
2023-02-03T00:52:16.955Z,79.55
2023-02-03T00:54:43.540Z,80.04
2023-02-03T00:57:09.982Z,80.12
2023-02-03T00:59:37.683Z,79.98
2023-02-03T01:02:05.077Z,80.03
2023-02-03T01:04:31.584Z,80.07
2023-02-03T01:06:59.805Z,80.06
2023-02-03T01:09:26.349Z,79.34
2023-02-03T01:11:53.963Z,79.17
2023-02-03T01:14:20.520Z,79.15
2023-02-03T01:16:46.972Z,79.38
2023-02-03T01:19:14.691Z,78.80
2023-02-03T01:21:41.203Z,79.19
2023-02-03T01:24:09.532Z,78.59
2023-02-03T01:26:38.266Z,78.66
2023-02-03T01:29:04.676Z,78.32
2023-02-03T01:31:42.226Z,78.37
2023-02-03T01:34:13.720Z,78.00
2023-02-03T01:36:40.334Z,78.33
2023-02-03T01:39:06.886Z,77.60
2023-02-03T01:41:36.332Z,77.80
2023-02-03T01:44:35.769Z,77.85
2023-02-03T01:47:04.587Z,77.60
2023-02-03T01:49:36.589Z,77.62
2023-02-03T01:52:04.676Z,77.74
2023-02-03T01:54:41.075Z,77.28
2023-02-03T01:57:15.720Z,77.55
2023-02-03T01:59:43.427Z,77.12
2023-02-03T02:02:12.489Z,77.59
2023-02-03T02:04:57.046Z,76.67
2023-02-03T02:07:25.150Z,76.96
2023-02-03T02:09:51.938Z,76.72
2023-02-03T02:12:18.316Z,77.18
2023-02-03T02:14:46.033Z,77.00
2023-02-03T02:17:31.394Z,76.46
2023-02-03T02:20:16.871Z,76.82
2023-02-03T02:23:02.992Z,77.17
2023-02-03T02:25:56.636Z,77.18
2023-02-03T02:28:57.330Z,77.47
2023-02-03T02:31:48.089Z,77.20
2023-02-03T02:34:33.207Z,76.90
2023-02-03T02:37:13.521Z,77.71
2023-02-03T02:40:12.272Z,77.30
2023-02-03T02:43:10.217Z,77.83
2023-02-03T02:45:51.220Z,77.65
2023-02-03T02:48:23.591Z,77.71
2023-02-03T02:50:53.803Z,77.86
2023-02-03T02:53:24.023Z,77.59
2023-02-03T02:55:53.406Z,77.54
2023-02-03T02:58:22.052Z,78.41
2023-02-03T03:00:48.517Z,77.92
2023-02-03T03:03:17.474Z,77.86
2023-02-03T03:05:53.157Z,78.29
2023-02-03T03:08:29.790Z,78.52
2023-02-03T03:10:58.304Z,78.44
2023-02-03T03:13:30.803Z,78.48
2023-02-03T03:16:02.205Z,78.54
2023-02-03T03:18:34.598Z,78.53
2023-02-03T03:21:06.390Z,77.97
2023-02-03T03:23:39.309Z,77.91
2023-02-03T03:26:14.711Z,77.65
2023-02-03T03:28:51.754Z,77.40
2023-02-03T03:31:20.026Z,77.81
2023-02-03T03:33:48.072Z,78.44
2023-02-03T03:36:23.962Z,77.94
2023-02-03T03:39:01.900Z,78.20
2023-02-03T03:42:23.669Z,78.74
2023-02-03T03:44:57.187Z,78.53
2023-02-03T03:47:26.531Z,77.96
2023-02-03T03:49:54.859Z,78.34
2023-02-03T03:52:27.732Z,78.23
2023-02-03T03:54:56.359Z,78.75
2023-02-03T03:57:35.474Z,78.40
2023-02-03T04:00:05.715Z,77.99
2023-02-03T04:02:40.951Z,77.72
2023-02-03T04:05:09.573Z,77.93
2023-02-03T04:07:42.073Z,78.13
2023-02-03T04:10:14.637Z,77.93
2023-02-03T04:12:41.059Z,77.67
2023-02-03T04:15:07.818Z,77.86
2023-02-03T04:17:36.099Z,77.41
2023-02-03T04:20:04.222Z,77.99
2023-02-03T04:22:30.640Z,78.17
2023-02-03T04:24:58.842Z,78.06
2023-02-03T04:27:26.142Z,77.90
2023-02-03T04:29:52.677Z,78.13
2023-02-03T04:32:19.711Z,78.07
2023-02-03T04:34:46.475Z,77.70
2023-02-03T04:37:12.878Z,78.33
2023-02-03T04:39:39.254Z,77.84
2023-02-03T04:42:05.689Z,78.30
2023-02-03T04:44:32.198Z,78.65
2023-02-03T04:46:58.598Z,77.85
2023-02-03T04:49:25.057Z,78.27
2023-02-03T04:51:51.447Z,78.83
2023-02-03T04:54:17.864Z,78.84
2023-02-03T04:56:44.286Z,78.57
2023-02-03T04:59:10.723Z,78.45
2023-02-03T05:01:37.085Z,78.56
2023-02-03T05:04:03.513Z,78.14
2023-02-03T05:06:31.939Z,78.11
2023-02-03T05:08:58.577Z,78.25
2023-02-03T05:11:25.028Z,78.28
2023-02-03T05:13:51.826Z,78.71
2023-02-03T05:16:18.373Z,78.26
2023-02-03T05:18:44.817Z,78.73
2023-02-03T05:21:11.205Z,78.65
2023-02-03T05:23:37.710Z,78.10
2023-02-03T05:26:04.892Z,78.36
2023-02-03T05:28:31.326Z,78.66
2023-02-03T05:30:59.553Z,78.57
2023-02-03T05:33:26.033Z,78.32
2023-02-03T05:35:52.412Z,78.07
2023-02-03T05:38:18.893Z,78.36
2023-02-03T05:41:06.774Z,78.07
2023-02-03T05:43:33.337Z,78.28
2023-02-03T05:46:01.669Z,78.51
2023-02-03T05:48:28.302Z,78.77
2023-02-03T05:50:54.765Z,78.44
2023-02-03T05:53:21.431Z,78.64
2023-02-03T05:55:47.837Z,78.76
2023-02-03T05:58:14.323Z,78.68
2023-02-03T06:00:40.740Z,78.55
2023-02-03T06:03:07.530Z,78.86
2023-02-03T06:05:34.641Z,78.93
2023-02-03T06:08:01.617Z,79.02
2023-02-03T06:10:28.421Z,78.93
2023-02-03T06:12:55.048Z,79.07
2023-02-03T06:15:21.465Z,78.81
2023-02-03T06:17:48.868Z,78.84
2023-02-03T06:20:18.301Z,78.66
2023-02-03T06:22:44.969Z,79.22
2023-02-03T06:25:13.135Z,78.47
2023-02-03T06:27:40.163Z,79.11
2023-02-03T06:30:07.043Z,79.28
2023-02-03T06:32:33.486Z,78.71
2023-02-03T06:34:59.892Z,79.12
2023-02-03T06:37:26.329Z,79.01
2023-02-03T06:39:52.744Z,79.37
2023-02-03T06:42:19.129Z,79.05
2023-02-03T06:44:45.537Z,79.13
2023-02-03T06:47:11.930Z,79.48
2023-02-03T06:49:38.421Z,79.36
2023-02-03T06:52:04.790Z,79.29
2023-02-03T06:54:31.189Z,79.01
2023-02-03T06:56:57.633Z,78.86
2023-02-03T06:59:23.993Z,79.21
2023-02-03T07:01:50.450Z,79.20
2023-02-03T07:04:16.991Z,79.21
2023-02-03T07:06:43.393Z,79.50
2023-02-03T07:09:09.870Z,79.25
2023-02-03T07:11:36.231Z,79.42
2023-02-03T07:14:03.153Z,78.97
2023-02-03T07:16:29.601Z,79.12
2023-02-03T07:18:56.029Z,79.68
2023-02-03T07:21:22.454Z,79.17
2023-02-03T07:23:49.765Z,80.09
2023-02-03T07:26:17.534Z,80.16
2023-02-03T07:28:43.931Z,79.25
2023-02-03T07:31:10.795Z,79.11
2023-02-03T07:33:38.318Z,79.66
2023-02-03T07:36:05.267Z,79.30
2023-02-03T07:38:31.982Z,79.06
2023-02-03T07:40:58.442Z,79.18
2023-02-03T07:43:25.069Z,79.44
2023-02-03T07:45:51.489Z,79.73
2023-02-03T07:48:18.099Z,79.44
2023-02-03T07:50:45.692Z,79.45
2023-02-03T07:53:12.071Z,79.01
2023-02-03T07:55:39.027Z,79.50
2023-02-03T07:58:06.104Z,79.37
2023-02-03T08:00:32.536Z,79.46
2023-02-03T08:02:59.039Z,79.57
2023-02-03T08:05:25.484Z,79.54
2023-02-03T08:07:51.911Z,79.12
2023-02-03T08:10:18.547Z,79.15
2023-02-03T08:12:46.653Z,79.54
2023-02-03T08:15:14.192Z,79.56
2023-02-03T08:17:41.828Z,79.47
2023-02-03T08:20:09.564Z,79.58
2023-02-03T08:22:36.157Z,79.89
2023-02-03T08:25:03.774Z,79.65
2023-02-03T08:27:32.066Z,79.50
2023-02-03T08:29:59.164Z,79.04
2023-02-03T08:32:26.528Z,78.94
2023-02-03T08:34:53.703Z,79.38
2023-02-03T08:37:24.248Z,79.65
2023-02-03T08:39:51.843Z,79.85
2023-02-03T08:42:19.540Z,79.40
2023-02-03T08:44:46.191Z,80.00
2023-02-03T08:47:13.115Z,79.38
2023-02-03T08:49:39.744Z,79.30
2023-02-03T08:52:11.515Z,79.61
2023-02-03T08:54:39.028Z,79.56
2023-02-03T08:57:06.341Z,78.71
2023-02-03T08:59:36.004Z,79.45
2023-02-03T09:02:14.402Z,79.07
2023-02-03T09:04:40.833Z,79.26
2023-02-03T09:07:07.262Z,79.05
2023-02-03T09:09:33.742Z,79.01
2023-02-03T09:12:05.368Z,78.95
2023-02-03T09:14:33.411Z,78.64
2023-02-03T09:17:01.627Z,78.08
2023-02-03T09:19:28.070Z,78.19
2023-02-03T09:21:54.671Z,78.26
2023-02-03T09:24:22.241Z,78.32
2023-02-03T09:26:48.998Z,77.99
2023-02-03T09:29:15.558Z,78.04
2023-02-03T09:31:42.083Z,78.16
2023-02-03T09:34:08.508Z,78.11
2023-02-03T09:36:35.358Z,77.95
2023-02-03T09:39:01.989Z,77.76
2023-02-03T09:42:05.873Z,78.51
2023-02-03T09:45:06.369Z,77.87
2023-02-03T09:47:36.379Z,78.24
2023-02-03T09:50:06.789Z,77.88
2023-02-03T09:52:36.828Z,77.47
2023-02-03T09:55:26.909Z,77.73
2023-02-03T09:58:08.915Z,77.35
2023-02-03T10:00:41.581Z,77.32
2023-02-03T10:03:20.113Z,77.53
2023-02-03T10:05:52.504Z,77.75
2023-02-03T10:08:40.561Z,78.02
2023-02-03T10:11:17.247Z,77.82
2023-02-03T10:14:00.527Z,77.87
2023-02-03T10:16:33.094Z,78.30
2023-02-03T10:19:08.584Z,77.87
2023-02-03T10:21:37.796Z,77.83
2023-02-03T10:24:09.689Z,78.41
2023-02-03T10:26:38.493Z,77.96
2023-02-03T10:29:28.886Z,77.83
2023-02-03T10:31:57.590Z,78.20
2023-02-03T10:34:25.720Z,78.32
2023-02-03T10:37:03.323Z,78.36
2023-02-03T10:39:32.997Z,77.96
2023-02-03T10:42:01.207Z,77.58
2023-02-03T10:44:38.119Z,77.63
2023-02-03T10:47:20.694Z,78.19
2023-02-03T10:49:51.101Z,78.03
2023-02-03T10:52:33.908Z,77.92
2023-02-03T10:55:28.993Z,77.73
2023-02-03T10:57:56.875Z,78.12
2023-02-03T11:00:29.279Z,77.92
2023-02-03T11:03:22.761Z,77.83
2023-02-03T11:06:07.543Z,78.27
2023-02-03T11:08:36.287Z,77.85
2023-02-03T11:11:09.052Z,77.61
2023-02-03T11:13:36.037Z,77.36
2023-02-03T11:16:22.121Z,77.91
2023-02-03T11:18:53.278Z,78.33
2023-02-03T11:21:22.327Z,78.20
2023-02-03T11:24:04.770Z,77.83
2023-02-03T11:26:40.003Z,77.65
2023-02-03T11:29:14.352Z,77.98
2023-02-03T11:31:48.414Z,77.68
2023-02-03T11:34:43.491Z,78.09
2023-02-03T11:37:26.956Z,77.80
2023-02-03T11:40:08.441Z,78.93
2023-02-03T11:42:38.153Z,78.60
2023-02-03T11:45:26.796Z,78.85
2023-02-03T11:48:01.975Z,78.38
2023-02-03T11:50:41.115Z,78.65
2023-02-03T11:53:21.759Z,78.57
2023-02-03T11:56:36.303Z,78.22
2023-02-03T11:59:36.760Z,78.73
2023-02-03T12:02:40.366Z,79.13
2023-02-03T12:05:28.332Z,79.22
2023-02-03T12:08:06.644Z,78.93
2023-02-03T12:10:38.650Z,78.94
2023-02-03T12:13:48.482Z,79.94
2023-02-03T12:16:52.198Z,80.20
2023-02-03T12:19:59.114Z,80.01
2023-02-03T12:22:34.435Z,80.18
2023-02-03T12:25:26.674Z,79.40
2023-02-03T12:28:32.867Z,79.59
2023-02-03T12:31:33.314Z,79.60
2023-02-03T12:34:04.183Z,79.37
2023-02-03T12:36:38.417Z,79.96
2023-02-03T12:39:19.391Z,79.73
2023-02-03T12:41:59.776Z,79.50
2023-02-03T12:44:32.591Z,79.68
2023-02-03T12:47:31.431Z,79.32
2023-02-03T12:50:05.321Z,79.03
2023-02-03T12:52:56.116Z,78.85
2023-02-03T12:55:44.838Z,78.74
2023-02-03T12:58:27.054Z,78.53
2023-02-03T13:01:05.284Z,78.64
2023-02-03T13:03:35.607Z,78.70
2023-02-03T13:06:16.449Z,78.73
2023-02-03T13:08:54.069Z,77.96
2023-02-03T13:11:29.130Z,78.28
2023-02-03T13:14:00.552Z,78.36
2023-02-03T13:16:35.400Z,78.12
2023-02-03T13:19:15.012Z,78.04
2023-02-03T13:21:42.002Z,78.19
2023-02-03T13:24:11.265Z,78.59
2023-02-03T13:27:14.102Z,78.26
2023-02-03T13:30:11.634Z,78.43
2023-02-03T13:32:40.904Z,78.01
2023-02-03T13:35:21.569Z,77.68
2023-02-03T13:38:20.674Z,78.03
2023-02-03T13:41:16.490Z,77.56
2023-02-03T13:43:51.320Z,77.95
2023-02-03T13:46:25.723Z,77.07
2023-02-03T13:48:54.163Z,76.67
2023-02-03T13:51:23.881Z,76.81
2023-02-03T13:53:52.352Z,76.36
2023-02-03T13:56:24.848Z,76.53
2023-02-03T13:59:06.248Z,76.21
2023-02-03T14:01:37.101Z,76.01
2023-02-03T14:04:06.455Z,75.72
2023-02-03T14:06:36.269Z,74.80
2023-02-03T14:09:22.056Z,75.37
2023-02-03T14:12:12.297Z,75.01
2023-02-03T14:14:38.663Z,73.85
2023-02-03T14:17:08.633Z,74.52
2023-02-03T14:19:35.113Z,73.43
2023-02-03T14:22:16.027Z,73.85
2023-02-03T14:24:46.411Z,73.50
2023-02-03T14:27:22.873Z,73.42
2023-02-03T14:30:09.786Z,73.11
2023-02-03T14:32:51.901Z,72.96
2023-02-03T14:35:22.063Z,72.65
2023-02-03T14:37:54.399Z,72.15
2023-02-03T14:40:38.497Z,71.68
2023-02-03T14:43:16.024Z,71.32
2023-02-03T14:46:16.695Z,70.92
2023-02-03T14:49:00.572Z,71.04
2023-02-03T14:51:48.706Z,70.95
2023-02-03T14:54:36.594Z,70.55
2023-02-03T14:57:24.393Z,70.71
2023-02-03T15:00:29.194Z,69.44
2023-02-03T15:03:09.108Z,69.83
2023-02-03T15:05:40.322Z,70.02
2023-02-03T15:08:31.457Z,70.26
2023-02-03T15:10:57.832Z,71.09
2023-02-03T15:13:29.533Z,72.52
2023-02-03T15:16:02.513Z,72.75
2023-02-03T15:18:37.436Z,71.16
2023-02-03T15:21:04.680Z,69.96
2023-02-03T15:23:41.465Z,68.22
2023-02-03T15:26:17.572Z,67.98
2023-02-03T15:28:44.566Z,67.88
2023-02-03T15:31:25.141Z,66.23
2023-02-03T15:33:56.642Z,66.16
2023-02-03T15:36:32.525Z,66.38
2023-02-03T15:39:12.307Z,67.24
2023-02-03T15:41:39.614Z,67.82
2023-02-03T15:44:22.147Z,67.89
2023-02-03T15:46:52.444Z,68.18
2023-02-03T15:49:27.217Z,68.96
2023-02-03T15:52:11.699Z,69.51
2023-02-03T15:54:50.920Z,69.87
2023-02-03T15:57:22.435Z,70.19
2023-02-03T16:00:08.789Z,69.53
2023-02-03T16:02:45.688Z,69.94
2023-02-03T16:05:23.919Z,70.61
2023-02-03T16:07:51.067Z,70.73
2023-02-03T16:10:43.656Z,70.67
2023-02-03T16:13:20.440Z,71.33
2023-02-03T16:16:05.843Z,71.02
2023-02-03T16:18:36.495Z,71.42
2023-02-03T16:21:05.248Z,71.13
2023-02-03T16:23:32.145Z,71.53
2023-02-03T16:26:06.318Z,71.55
2023-02-03T16:28:51.606Z,72.14
2023-02-03T16:31:38.990Z,72.67
2023-02-03T16:34:35.688Z,72.62
2023-02-03T16:37:29.730Z,73.22
2023-02-03T16:40:15.188Z,72.68
2023-02-03T16:42:59.949Z,73.46
2023-02-03T16:45:44.856Z,73.94
2023-02-03T16:48:30.612Z,74.66
2023-02-03T16:51:03.513Z,74.29
2023-02-03T16:53:32.307Z,74.11
2023-02-03T16:56:01.507Z,74.53
2023-02-03T16:58:28.132Z,74.70
2023-02-03T17:00:55.180Z,74.05
2023-02-03T17:03:23.782Z,73.41
2023-02-03T17:05:51.857Z,73.66
2023-02-03T17:08:21.213Z,73.58
2023-02-03T17:10:48.032Z,72.99
2023-02-03T17:13:15.968Z,71.80
2023-02-03T17:15:45.333Z,72.43
2023-02-03T17:18:14.799Z,72.13
2023-02-03T17:20:42.269Z,72.04
2023-02-03T17:23:09.719Z,71.02
2023-02-03T17:25:36.943Z,71.62
2023-02-03T17:28:08.292Z,71.41
2023-02-03T17:30:35.492Z,70.53
2023-02-03T17:33:03.380Z,70.38
2023-02-03T17:35:30.197Z,70.36
2023-02-03T17:37:56.825Z,70.29
2023-02-03T17:54:09.020Z,69.12
2023-02-03T17:56:35.741Z,69.37
2023-02-03T17:59:04.700Z,69.06
2023-02-03T18:01:32.190Z,69.37
2023-02-03T18:04:04.631Z,69.72
2023-02-03T18:06:34.981Z,69.78
2023-02-03T18:09:06.637Z,69.88
2023-02-03T18:11:34.757Z,69.84
2023-02-03T18:14:02.037Z,70.62
2023-02-03T18:16:33.002Z,70.36
2023-02-03T18:19:01.132Z,71.18
2023-02-03T18:21:27.660Z,71.54
2023-02-03T18:23:59.305Z,71.67
2023-02-03T18:26:28.684Z,71.59
2023-02-03T18:28:55.573Z,71.73
2023-02-03T18:31:22.127Z,71.77
2023-02-03T18:33:48.676Z,72.11
2023-02-03T18:36:16.648Z,71.78
2023-02-03T18:38:44.590Z,71.86
2023-02-03T18:41:22.587Z,71.81
2023-02-03T18:43:49.313Z,72.07
2023-02-03T18:46:22.531Z,71.35
2023-02-03T18:48:49.654Z,71.55
2023-02-03T18:51:18.249Z,70.79
2023-02-03T18:53:46.647Z,71.43
2023-02-03T18:56:16.404Z,71.15
2023-02-03T18:58:42.833Z,70.97
2023-02-03T19:01:09.628Z,70.65
2023-02-03T19:03:37.975Z,70.87
2023-02-03T19:06:08.981Z,70.93
2023-02-03T19:08:35.369Z,71.19
2023-02-03T19:11:01.815Z,71.43
2023-02-03T19:13:28.209Z,70.79
2023-02-03T19:15:54.605Z,70.81
2023-02-03T19:18:21.049Z,70.45
2023-02-03T19:20:47.452Z,70.87
2023-02-03T19:23:14.238Z,70.72
2023-02-03T19:25:40.687Z,70.95
2023-02-03T19:28:14.221Z,70.61
2023-02-03T19:30:44.398Z,70.14
2023-02-03T19:33:11.597Z,70.18
2023-02-03T19:35:38.499Z,69.84
2023-02-03T19:38:05.312Z,70.12
2023-02-03T19:40:31.964Z,69.37
2023-02-03T19:42:58.932Z,69.67
2023-02-03T19:45:25.358Z,68.78
2023-02-03T19:47:51.844Z,69.43
2023-02-03T19:50:18.708Z,68.59
2023-02-03T19:52:45.200Z,69.33
2023-02-03T19:55:13.956Z,68.98
2023-02-03T19:57:40.396Z,69.23
2023-02-03T20:00:07.497Z,69.30
2023-02-03T20:02:40.150Z,69.64
2023-02-03T20:05:06.843Z,68.64
2023-02-03T20:07:33.755Z,68.91
2023-02-03T20:10:00.874Z,68.67
2023-02-03T20:12:27.255Z,69.04
2023-02-03T20:14:53.691Z,68.66
2023-02-03T20:17:20.141Z,68.94
2023-02-03T20:19:46.544Z,68.43
2023-02-03T20:22:12.975Z,68.33
2023-02-03T20:24:39.368Z,68.54
2023-02-03T20:27:05.770Z,67.91
2023-02-03T20:29:32.220Z,67.97
2023-02-03T20:31:58.768Z,67.52
2023-02-03T20:34:27.418Z,68.12
2023-02-03T20:36:58.761Z,68.10
2023-02-03T20:39:25.704Z,67.88
2023-02-03T20:41:52.538Z,67.82
2023-02-03T20:44:19.101Z,67.35
2023-02-03T20:46:45.734Z,67.73
2023-02-03T20:49:15.011Z,67.33
2023-02-03T20:51:41.548Z,67.40
2023-02-03T20:54:16.939Z,67.66
2023-02-03T20:56:44.101Z,67.53
2023-02-03T20:59:17.282Z,68.12
2023-02-03T21:01:45.438Z,68.95
2023-02-03T21:04:32.545Z,69.01
2023-02-03T21:06:59.569Z,68.97
2023-02-03T21:09:27.402Z,68.68
2023-02-03T21:11:55.369Z,69.38
2023-02-03T21:14:32.428Z,69.42
2023-02-03T21:16:58.903Z,69.56
2023-02-03T21:19:32.294Z,69.34
2023-02-03T21:22:04.167Z,69.67
2023-02-03T21:24:36.643Z,69.00
2023-02-03T21:27:31.731Z,69.32
2023-02-03T21:30:00.007Z,68.91
2023-02-03T21:32:36.904Z,68.99
2023-02-03T21:35:23.763Z,68.60
2023-02-03T21:37:52.890Z,69.03
2023-02-03T21:40:25.568Z,68.78
2023-02-03T21:42:52.808Z,68.22
2023-02-03T21:45:22.350Z,68.05
2023-02-03T21:47:51.314Z,68.87
2023-02-03T21:50:31.674Z,68.53
2023-02-03T21:53:07.467Z,68.93
2023-02-03T21:55:34.316Z,68.37
2023-02-03T21:58:25.583Z,68.57
2023-02-03T22:00:54.199Z,68.36
2023-02-03T22:03:33.474Z,68.15
2023-02-03T22:06:08.962Z,68.42
2023-02-03T22:08:41.924Z,68.96
2023-02-03T22:11:08.780Z,68.74
2023-02-03T22:13:35.516Z,68.54
2023-02-03T22:16:03.788Z,68.43
2023-02-03T22:18:30.496Z,68.55
2023-02-03T22:20:57.187Z,68.62
2023-02-03T22:23:24.205Z,68.47
2023-02-03T22:25:50.618Z,68.15
2023-02-03T22:28:17.506Z,68.89
2023-02-03T22:30:44.105Z,68.83
2023-02-03T22:33:10.543Z,68.68
2023-02-03T22:35:36.945Z,68.69
2023-02-03T22:38:03.647Z,68.86
2023-02-03T22:40:30.346Z,68.87
2023-02-03T22:42:57.077Z,68.85
2023-02-03T22:45:23.539Z,68.94
2023-02-03T22:47:49.904Z,69.10
2023-02-03T22:50:20.429Z,68.75
2023-02-03T22:52:48.769Z,68.96
2023-02-03T22:55:15.157Z,68.80
2023-02-03T22:57:42.254Z,68.68
2023-02-03T23:00:13.676Z,68.53
2023-02-03T23:02:40.611Z,68.60
2023-02-03T23:05:08.688Z,68.75
2023-02-03T23:07:37.138Z,68.46
2023-02-03T23:10:05.154Z,67.09
2023-02-03T23:12:31.684Z,68.10
2023-02-03T23:14:58.352Z,67.71
2023-02-03T23:17:24.932Z,67.39
2023-02-03T23:19:51.342Z,67.70
2023-02-03T23:22:17.769Z,67.70
2023-02-03T23:24:44.184Z,68.21
2023-02-03T23:27:10.788Z,68.01
2023-02-03T23:29:38.175Z,68.02
2023-02-03T23:32:05.567Z,68.33
2023-02-03T23:34:50.587Z,68.38
2023-02-03T23:37:17.087Z,68.10
2023-02-03T23:39:43.471Z,68.76
2023-02-03T23:42:09.907Z,68.63
2023-02-03T23:44:36.326Z,68.66
2023-02-03T23:47:02.845Z,69.04
2023-02-03T23:49:29.258Z,69.23
2023-02-03T23:51:55.696Z,69.53
2023-02-03T23:54:22.150Z,69.70
2023-02-03T23:56:48.733Z,69.66
2023-02-03T23:59:15.220Z,69.41
